Time;durP1;ratioP1;P1;durP2;ratioP2;P2;SDS_P1;SDS_P2;PMS_P1;PMS_P2;Temp;Humidity;BMP_temperature;BMP_pressure;BME280_temperature;BME280_humidity;BME280_pressure;Samples;Min_cycle;Max_cycle;Signal;HPM_P1;HPM_P2
2022/01/10 00:01:09;;;;;;;11.50;8.60;;;;;;;4.95;61.13;98508.91;4986799;28;20689;-68
2022/01/10 00:03:37;;;;;;;13.60;8.43;;;;;;;5.39;60.39;98519.09;4987089;28;20224;-68
2022/01/10 00:06:03;;;;;;;14.27;9.40;;;;;;;4.71;61.02;98495.50;4980519;28;20609;-68
2022/01/10 00:08:31;;;;;;;14.63;10.80;;;;;;;5.04;60.85;98516.66;4968484;28;20241;-68
2022/01/10 00:10:58;;;;;;;15.60;10.10;;;;;;;5.74;59.24;98515.19;4982499;28;20309;-68
2022/01/10 00:13:25;;;;;;;17.50;8.97;;;;;;;5.27;60.34;98505.38;4948488;28;20229;-68
2022/01/10 00:15:52;;;;;;;16.17;8.30;;;;;;;2.85;65.33;98548.91;4967346;28;20246;-68
2022/01/10 00:18:19;;;;;;;13.40;6.80;;;;;;;3.14;68.15;98630.31;4966071;28;20230;-68
2022/01/10 00:20:46;;;;;;;9.57;6.10;;;;;;;4.79;62.64;98554.59;4973712;28;20217;-68
2022/01/10 00:23:13;;;;;;;11.67;6.63;;;;;;;5.25;60.62;98550.50;4980057;28;21010;-69
2022/01/10 00:25:40;;;;;;;12.43;6.73;;;;;;;3.79;64.70;98592.22;4971462;28;20965;-68
2022/01/10 00:28:06;;;;;;;12.03;8.43;;;;;;;4.56;62.78;98581.66;4982943;28;20252;-68
2022/01/10 00:30:34;;;;;;;11.70;8.00;;;;;;;5.18;60.56;98546.06;4984344;28;20238;-68
2022/01/10 00:33:00;;;;;;;16.03;9.73;;;;;;;5.50;59.76;98536.44;4966464;28;20219;-68
2022/01/10 00:35:27;;;;;;;13.07;9.73;;;;;;;5.98;58.23;98539.91;4968301;28;20238;-68
2022/01/10 00:37:54;;;;;;;10.43;7.60;;;;;;;5.76;58.58;98531.69;4965779;28;20210;-68
2022/01/10 00:40:21;;;;;;;14.83;8.43;;;;;;;5.15;59.68;98528.69;4970210;28;20233;-68
2022/01/10 00:42:54;;;;;;;11.10;7.70;;;;;;;4.86;61.19;98571.47;4981084;28;20227;-67
2022/01/10 00:45:26;;;;;;;9.70;6.67;;;;;;;4.60;61.42;98576.88;4977977;28;20721;-68
2022/01/10 00:47:55;;;;;;;11.90;8.40;;;;;;;5.11;59.82;98559.13;4969907;28;20230;-69
2022/01/10 00:50:24;;;;;;;21.83;12.93;;;;;;;4.33;62.55;98602.53;4983897;28;20297;-68
2022/01/10 00:52:52;;;;;;;16.90;10.70;;;;;;;4.45;61.85;98593.34;4972480;28;20233;-68
2022/01/10 00:55:20;;;;;;;13.90;8.43;;;;;;;4.00;63.02;98612.16;4977877;28;20236;-68
2022/01/10 00:57:47;;;;;;;9.20;6.87;;;;;;;3.82;63.31;98618.31;4952859;28;20226;-68
2022/01/10 01:00:15;;;;;;;10.43;6.50;;;;;;;4.68;61.95;98622.59;4984436;28;20235;-68
2022/01/10 01:02:42;;;;;;;9.57;7.40;;;;;;;3.85;63.19;98625.09;4990249;28;20233;-68
2022/01/10 01:05:14;;;;;;;10.97;6.87;;;;;;;4.63;61.57;98614.34;4988494;28;20240;-68
2022/01/10 01:07:41;;;;;;;9.03;6.73;;;;;;;5.14;60.32;98602.88;4995475;28;20224;-68
2022/01/10 01:12:51;;;;;;;9.73;7.07;;;;;;;4.70;60.86;98609.25;5003436;28;20241;-68
2022/01/10 01:15:23;;;;;;;11.07;6.97;;;;;;;4.46;62.19;98636.41;4984660;28;20709;-68
2022/01/10 01:25:58;;;;;;;12.87;6.53;;;;;;;4.73;61.55;98644.09;5000807;28;20218;-68
2022/01/10 01:28:25;;;;;;;12.73;7.00;;;;;;;4.12;61.65;98629.34;4978528;28;20720;-68
2022/01/10 01:30:53;;;;;;;10.97;7.33;;;;;;;4.09;62.72;98663.97;5001462;28;20229;-68
2022/01/10 01:33:20;;;;;;;11.47;7.33;;;;;;;3.87;63.30;98668.78;5003922;28;20794;-68
2022/01/10 01:35:47;;;;;;;11.20;7.83;;;;;;;4.22;62.20;98663.56;4971107;28;20727;-68
2022/01/10 01:38:14;;;;;;;11.90;7.83;;;;;;;4.29;62.47;98675.94;4976826;28;20228;-68
2022/01/10 01:40:49;;;;;;;12.50;6.73;;;;;;;4.22;62.25;98688.13;4970864;28;20231;-68
2022/01/10 01:43:16;;;;;;;11.50;7.03;;;;;;;4.14;62.93;98688.91;4999863;28;20229;-68
2022/01/10 01:45:47;;;;;;;10.30;7.27;;;;;;;3.98;63.00;98679.09;4987970;28;20222;-69
2022/01/10 01:48:14;;;;;;;12.63;7.80;;;;;;;4.07;62.66;98690.50;4990690;28;20608;-69
2022/01/10 01:50:41;;;;;;;11.90;7.93;;;;;;;4.86;59.87;98662.13;4996840;28;20230;-68
2022/01/10 01:53:09;;;;;;;11.27;8.07;;;;;;;3.91;62.01;98672.78;4998079;28;20255;-68
2022/01/10 01:55:37;;;;;;;13.77;7.80;;;;;;;3.92;62.49;98690.25;4989210;28;20224;-68
2022/01/10 01:58:04;;;;;;;11.50;8.07;;;;;;;3.92;63.03;98700.81;4997252;28;20220;-69
2022/01/10 02:00:31;;;;;;;11.13;8.17;;;;;;;3.43;64.92;98717.06;4990738;28;20228;-68
2022/01/10 02:02:58;;;;;;;11.47;8.67;;;;;;;4.08;63.07;98694.81;4993536;28;20880;-68
2022/01/10 02:05:26;;;;;;;11.37;8.20;;;;;;;3.20;65.53;98716.69;5000229;28;20223;-68
2022/01/10 02:07:53;;;;;;;12.97;8.03;;;;;;;3.22;65.48;98740.25;4995790;28;20229;-68
2022/01/10 02:10:20;;;;;;;12.50;8.17;;;;;;;2.77;67.31;98736.63;5002566;28;21112;-68
2022/01/10 02:12:47;;;;;;;12.23;8.17;;;;;;;3.15;66.19;98745.28;4991106;28;20598;-67
2022/01/10 02:15:28;;;;;;;13.37;8.10;;;;;;;3.38;65.08;98729.88;5001154;28;20228;-68
2022/01/10 02:17:59;;;;;;;11.20;7.47;;;;;;;3.80;63.92;98716.06;4998573;28;20614;-68
2022/01/10 02:20:31;;;;;;;13.27;8.67;;;;;;;3.31;65.38;98735.88;5002089;28;20669;-68
2022/01/10 02:22:58;;;;;;;10.13;8.20;;;;;;;4.48;62.08;98698.63;5002776;28;20229;-68
2022/01/10 02:25:25;;;;;;;11.07;7.40;;;;;;;2.55;65.53;98718.59;5000972;28;20723;-68
2022/01/10 02:27:54;;;;;;;14.63;10.10;;;;;;;0.99;71.03;98746.69;4998836;28;20226;-68
2022/01/10 02:30:21;;;;;;;15.87;9.53;;;;;;;3.16;66.29;98757.47;4988572;28;20238;-68
2022/01/10 02:32:48;;;;;;;15.77;8.67;;;;;;;3.44;63.84;98723.19;5001929;28;20574;-67
2022/01/10 02:35:28;;;;;;;13.67;9.67;;;;;;;3.24;64.89;98749.66;5003422;28;20922;-68
2022/01/10 02:37:56;;;;;;;14.27;9.33;;;;;;;3.04;66.21;98767.38;4985565;28;20232;-68
2022/01/10 02:40:27;;;;;;;17.53;9.50;;;;;;;3.23;65.15;98745.34;4976637;28;20236;-68
2022/01/10 02:42:54;;;;;;;12.33;9.40;;;;;;;2.42;66.91;98763.66;5002515;28;20220;-68
2022/01/10 02:45:21;;;;;;;13.57;9.53;;;;;;;2.63;66.67;98781.84;4972918;28;20228;-68
2022/01/10 02:47:49;;;;;;;13.67;9.80;;;;;;;3.29;65.26;98772.94;4999336;28;20752;-68
2022/01/10 02:50:18;;;;;;;11.70;8.70;;;;;;;3.51;64.09;98755.88;4990327;28;20224;-68
2022/01/10 02:52:45;;;;;;;13.67;8.37;;;;;;;4.31;62.16;98737.34;4994636;28;20618;-67
2022/01/10 02:55:13;;;;;;;19.60;8.47;;;;;;;3.55;63.67;98749.31;4998073;28;20231;-67
2022/01/10 02:57:41;;;;;;;17.43;8.67;;;;;;;3.62;63.53;98754.81;4998595;28;20570;-68
2022/01/10 03:00:14;;;;;;;12.37;7.50;;;;;;;4.28;62.49;98760.59;4999761;28;20230;-67
2022/01/10 03:02:43;;;;;;;10.63;7.67;;;;;;;4.44;60.90;98731.63;5002454;28;20225;-68
2022/01/10 03:05:11;;;;;;;16.07;8.87;;;;;;;3.61;62.96;98766.38;4991263;28;20232;-69
2022/01/10 03:07:38;;;;;;;15.07;7.97;;;;;;;3.60;64.34;98791.88;4978315;28;20305;-68
2022/01/10 03:10:05;;;;;;;13.13;7.53;;;;;;;3.48;63.77;98781.72;5000106;28;20248;-68
2022/01/10 03:12:33;;;;;;;10.90;7.47;;;;;;;2.84;65.53;98795.63;5002384;28;20759;-68
2022/01/10 03:15:01;;;;;;;9.77;7.53;;;;;;;3.51;64.56;98808.63;5002446;28;20232;-68
2022/01/10 03:17:28;;;;;;;12.50;7.73;;;;;;;2.52;66.34;98817.09;4999344;28;20251;-68
2022/01/10 03:19:55;;;;;;;12.37;7.53;;;;;;;4.58;61.23;98771.66;4989840;28;20233;-67
2022/01/10 03:22:22;;;;;;;11.17;8.03;;;;;;;5.09;59.37;98736.38;5001663;28;20228;-68
2022/01/10 03:24:49;;;;;;;9.33;7.80;;;;;;;3.88;63.10;98809.47;4993443;28;20225;-68
2022/01/10 03:27:16;;;;;;;10.03;7.83;;;;;;;5.07;59.15;98754.22;4984905;28;20228;-68
2022/01/10 03:29:43;;;;;;;11.93;8.17;;;;;;;5.12;58.77;98744.97;4992564;28;20220;-69
2022/01/10 03:32:11;;;;;;;11.57;7.67;;;;;;;4.38;61.29;98795.63;4999310;28;20223;-68
2022/01/10 03:34:39;;;;;;;13.80;7.90;;;;;;;3.09;64.26;98810.94;4975923;28;20246;-68
2022/01/10 03:37:07;;;;;;;11.30;7.40;;;;;;;3.72;63.94;98842.59;5002544;28;20951;-69
2022/01/10 03:39:35;;;;;;;12.73;7.60;;;;;;;3.17;64.20;98822.41;5000548;28;20239;-68
2022/01/10 03:42:03;;;;;;;15.23;7.77;;;;;;;3.55;63.71;98838.16;4995011;28;20238;-68
2022/01/10 03:44:30;;;;;;;10.97;8.03;;;;;;;2.50;66.26;98851.47;5000624;28;20243;-68
2022/01/10 03:46:57;;;;;;;15.67;9.23;;;;;;;2.68;65.82;98864.72;5008135;28;20235;-69
2022/01/10 03:49:25;;;;;;;13.30;7.93;;;;;;;3.23;64.42;98860.50;5009340;28;20942;-69
2022/01/10 03:51:52;;;;;;;12.53;7.00;;;;;;;3.04;65.28;98861.41;5009254;28;20339;-69
2022/01/10 03:54:19;;;;;;;12.17;7.87;;;;;;;2.61;66.00;98868.06;5008608;28;20220;-69
2022/01/10 03:56:48;;;;;;;12.13;7.77;;;;;;;2.64;66.15;98879.13;5009258;28;20224;-68
2022/01/10 03:59:15;;;;;;;11.47;7.63;;;;;;;3.09;65.37;98874.16;5009885;28;20754;-68
2022/01/10 04:01:41;;;;;;;13.87;7.90;;;;;;;2.82;65.66;98878.41;4994318;28;20229;-69
2022/01/10 04:04:09;;;;;;;11.40;8.70;;;;;;;4.64;61.02;98814.13;4989190;28;20610;-69
2022/01/10 04:06:36;;;;;;;10.27;7.13;;;;;;;2.66;66.34;98890.38;4989998;28;20233;-68
2022/01/10 04:09:03;;;;;;;9.27;7.60;;;;;;;4.09;62.29;98846.06;4977767;28;20228;-68
2022/01/10 04:11:30;;;;;;;12.23;8.50;;;;;;;1.41;69.80;98908.53;4990101;28;20792;-67
2022/01/10 04:13:57;;;;;;;13.10;8.60;;;;;;;2.07;68.23;98922.97;4971983;28;20305;-68
2022/01/10 04:16:24;;;;;;;11.27;8.17;;;;;;;2.79;66.52;98907.66;4989779;28;20229;-69
2022/01/10 04:18:51;;;;;;;13.63;8.10;;;;;;;3.86;61.40;98828.09;4984969;28;20252;-68
2022/01/10 04:21:19;;;;;;;12.93;9.03;;;;;;;3.75;60.66;98799.28;4986762;28;20271;-69
2022/01/10 04:23:46;;;;;;;9.87;7.87;;;;;;;0.26;73.14;98861.41;4975702;28;20611;-68
2022/01/10 04:26:13;;;;;;;9.37;7.63;;;;;;;3.74;64.06;98859.13;5007180;28;20665;-69
2022/01/10 04:28:40;;;;;;;12.27;9.10;;;;;;;3.19;64.07;98878.41;5008964;28;20241;-68
2022/01/10 04:31:07;;;;;;;11.77;8.00;;;;;;;3.96;61.89;98842.03;5005050;28;20225;-68
2022/01/10 04:33:34;;;;;;;12.40;8.47;;;;;;;2.65;64.94;98891.34;5007617;28;20231;-68
2022/01/10 04:36:01;;;;;;;13.73;9.37;;;;;;;3.34;65.14;98923.59;5005030;28;20226;-71
2022/01/10 04:38:28;;;;;;;11.70;9.50;;;;;;;3.14;64.11;98900.91;4983668;28;20605;-71
2022/01/10 04:40:55;;;;;;;11.63;8.47;;;;;;;2.74;65.74;98920.44;4988071;28;20751;-70
2022/01/10 04:43:22;;;;;;;14.27;8.63;;;;;;;3.22;63.68;98893.94;4975420;28;20232;-70
2022/01/10 04:45:55;;;;;;;14.63;8.40;;;;;;;4.36;61.37;98875.00;4976217;28;20756;-70
2022/01/10 04:48:22;;;;;;;13.10;8.20;;;;;;;5.14;58.96;98859.31;4988102;28;20757;-71
2022/01/10 04:51:12;;;;;;;13.10;9.00;;;;;;;4.28;61.83;98888.16;4984519;28;20222;-70
2022/01/10 04:53:37;;;;;;;14.97;9.37;;;;;;;2.98;64.08;98907.63;4985471;28;20808;-70
2022/01/10 04:56:04;;;;;;;15.13;9.30;;;;;;;4.00;62.05;98908.50;4985229;28;20688;-71
2022/01/10 04:58:32;;;;;;;17.27;9.90;;;;;;;4.04;62.51;98914.31;5007155;28;20342;-70
2022/01/10 05:00:58;;;;;;;15.40;10.57;;;;;;;4.77;59.79;98885.03;4989186;28;20227;-70
2022/01/10 05:03:26;;;;;;;11.20;9.10;;;;;;;3.98;62.38;98921.03;4988500;28;20237;-69
2022/01/10 05:05:54;;;;;;;14.73;9.37;;;;;;;3.51;63.17;98926.47;4989177;28;20236;-70
2022/01/10 05:08:21;;;;;;;13.63;9.33;;;;;;;4.03;62.15;98931.13;4970342;28;20900;-70
2022/01/10 05:10:49;;;;;;;13.63;8.87;;;;;;;4.08;61.23;98910.38;4983335;28;20235;-70
2022/01/10 05:13:16;;;;;;;13.13;9.97;;;;;;;3.73;62.76;98941.06;5008117;28;20230;-71
2022/01/10 05:15:46;;;;;;;15.80;9.80;;;;;;;5.06;59.44;98916.47;5008116;28;20228;-70
2022/01/10 05:18:14;;;;;;;12.27;9.57;;;;;;;5.93;56.63;98892.44;4989696;28;20236;-70
2022/01/10 05:20:40;;;;;;;14.10;10.17;;;;;;;5.67;56.53;98879.34;5007480;28;20243;-70
2022/01/10 05:23:07;;;;;;;10.73;9.20;;;;;;;4.43;60.94;98948.34;5008064;28;20235;-70
2022/01/10 05:25:39;;;;;;;12.90;10.33;;;;;;;4.17;61.38;98938.53;5008249;28;20238;-70
2022/01/10 05:28:11;;;;;;;13.17;10.50;;;;;;;4.44;60.70;98945.53;5006364;28;20232;-70
2022/01/10 05:30:40;;;;;;;13.50;9.37;;;;;;;4.38;61.86;98977.00;5001922;28;20241;-70
2022/01/10 05:33:08;;;;;;;13.43;9.33;;;;;;;3.97;61.76;98969.50;4987711;28;20767;-70
2022/01/10 05:35:37;;;;;;;11.03;9.10;;;;;;;3.80;63.45;98994.88;4988462;28;20255;-70
2022/01/10 05:38:04;;;;;;;11.37;8.60;;;;;;;3.91;62.94;98999.97;4987594;28;20609;-70
2022/01/10 05:40:31;;;;;;;13.20;9.10;;;;;;;3.18;64.80;99021.69;4988497;28;20659;-71
2022/01/10 05:42:57;;;;;;;12.23;8.67;;;;;;;2.91;65.54;99017.16;4983547;28;20236;-70
2022/01/10 05:45:25;;;;;;;13.03;8.80;;;;;;;4.14;62.38;99000.34;4990436;28;20228;-70
2022/01/10 05:47:52;;;;;;;12.30;9.47;;;;;;;4.97;59.27;98948.28;5007448;28;20322;-70
2022/01/10 05:50:31;;;;;;;13.57;9.63;;;;;;;3.14;64.50;99006.34;5005904;28;20221;-70
2022/01/10 05:52:59;;;;;;;12.77;9.43;;;;;;;4.36;61.38;98987.72;5007550;28;20223;-70
2022/01/10 05:55:26;;;;;;;16.23;8.67;;;;;;;4.71;60.47;98988.69;5007383;28;20225;-70
2022/01/10 05:57:54;;;;;;;18.10;9.17;;;;;;;5.42;58.30;98955.16;4989762;28;20232;-71
2022/01/10 06:00:21;;;;;;;12.87;10.17;;;;;;;3.71;63.38;99024.75;4986278;28;20237;-70
2022/01/10 06:02:49;;;;;;;13.67;9.60;;;;;;;4.88;59.86;98994.94;4983393;28;20226;-70
2022/01/10 06:05:17;;;;;;;14.83;9.60;;;;;;;3.65;63.04;99033.25;4983781;28;20229;-70
2022/01/10 06:07:44;;;;;;;15.87;9.57;;;;;;;3.28;64.63;99053.31;4978753;28;20233;-70
2022/01/10 06:10:12;;;;;;;13.47;9.07;;;;;;;3.77;63.24;99059.28;4969782;28;20230;-70
2022/01/10 06:12:39;;;;;;;12.77;8.77;;;;;;;3.28;64.40;99069.13;4985666;28;20236;-70
2022/01/10 06:15:06;;;;;;;15.43;9.30;;;;;;;3.36;65.02;99087.75;4987478;28;20602;-71
2022/01/10 06:17:33;;;;;;;12.90;8.67;;;;;;;4.93;59.92;99024.41;4987310;28;20226;-70
2022/01/10 06:20:01;;;;;;;14.07;8.90;;;;;;;5.42;58.36;99008.03;4987471;28;20214;-69
2022/01/10 06:22:28;;;;;;;20.73;11.43;;;;;;;5.47;57.67;98997.81;4987341;28;20232;-71
2022/01/10 06:24:55;;;;;;;16.80;10.77;;;;;;;5.27;58.53;99021.00;4987218;28;20236;-70
2022/01/10 06:27:22;;;;;;;14.80;10.30;;;;;;;5.57;57.45;99022.34;4983003;28;20244;-71
2022/01/10 06:29:49;;;;;;;12.50;8.83;;;;;;;3.62;63.28;99084.47;4985821;28;20225;-70
2022/01/10 06:32:17;;;;;;;11.53;8.13;;;;;;;3.68;63.56;99102.38;4976828;28;20763;-71
2022/01/10 06:34:44;;;;;;;14.57;9.77;;;;;;;3.97;63.26;99112.81;4985540;28;20232;-70
2022/01/10 06:37:11;;;;;;;17.47;10.77;;;;;;;3.50;63.75;99099.63;4987013;28;20218;-70
2022/01/10 06:39:38;;;;;;;13.37;9.20;;;;;;;3.09;65.60;99124.50;4986400;28;20255;-70
2022/01/10 06:42:05;;;;;;;14.87;10.23;;;;;;;3.03;66.13;99128.50;4986759;28;20229;-69
2022/01/10 06:44:32;;;;;;;13.17;9.10;;;;;;;3.16;65.92;99146.69;4985310;28;20232;-71
2022/01/10 06:46:59;;;;;;;12.67;7.97;;;;;;;4.83;60.89;99090.53;4999291;28;20217;-70
2022/01/10 06:49:26;;;;;;;15.17;8.67;;;;;;;5.58;57.74;99046.97;5006765;28;20553;-70
2022/01/10 06:51:53;;;;;;;15.47;9.40;;;;;;;4.62;60.43;99097.91;5005303;28;20941;-70
2022/01/10 06:54:20;;;;;;;13.83;9.10;;;;;;;5.00;58.90;99075.66;5004343;28;20225;-70
2022/01/10 06:56:49;;;;;;;15.53;9.77;;;;;;;3.21;64.59;99153.22;5005097;28;20238;-69
2022/01/10 06:59:16;;;;;;;10.10;7.47;;;;;;;4.31;61.93;99130.75;5006886;28;20230;-71
2022/01/10 07:01:44;;;;;;;16.40;8.37;;;;;;;5.07;59.00;99092.59;4990997;28;20655;-69
2022/01/10 07:04:12;;;;;;;14.83;7.93;;;;;;;5.18;58.59;99094.16;4986537;28;20221;-70
2022/01/10 07:06:41;;;;;;;15.77;8.40;;;;;;;5.51;57.39;99088.28;4986945;28;20237;-70
2022/01/10 07:09:08;;;;;;;13.23;7.93;;;;;;;5.38;57.83;99096.59;4981724;28;20318;-70
2022/01/10 07:11:35;;;;;;;12.67;8.73;;;;;;;5.74;56.73;99109.75;4985900;28;20242;-70
2022/01/10 07:14:04;;;;;;;11.80;8.50;;;;;;;5.29;56.91;99106.31;4982438;28;20225;-70
2022/01/10 07:16:31;;;;;;;12.30;8.87;;;;;;;5.82;56.50;99120.41;5006283;28;20230;-71
2022/01/10 07:18:58;;;;;;;16.37;10.40;;;;;;;5.57;56.50;99119.41;5005984;28;20237;-70
2022/01/10 07:21:25;;;;;;;13.37;10.30;;;;;;;5.42;56.82;99135.81;5010341;28;20231;-71
2022/01/10 07:23:52;;;;;;;17.20;11.40;;;;;;;4.67;58.45;99162.53;5010043;28;20745;-69
2022/01/10 07:26:19;;;;;;;18.67;12.30;;;;;;;4.60;58.85;99187.03;5009192;28;20618;-70
2022/01/10 07:28:51;;;;;;;16.13;11.07;;;;;;;4.99;58.43;99200.91;5010628;28;20712;-70
2022/01/10 07:31:18;;;;;;;20.17;11.80;;;;;;;5.04;58.16;99197.78;4999683;28;20246;-70
2022/01/10 07:33:45;;;;;;;18.67;12.00;;;;;;;5.04;57.77;99179.28;4990550;28;20224;-70
2022/01/10 07:36:12;;;;;;;17.77;12.17;;;;;;;5.08;57.86;99200.00;4989567;28;20616;-70
2022/01/10 07:38:39;;;;;;;14.80;11.77;;;;;;;4.01;60.23;99210.19;4990398;28;20262;-70
2022/01/10 07:41:07;;;;;;;18.53;13.30;;;;;;;3.15;64.11;99288.19;4989269;28;20224;-71
2022/01/10 07:43:35;;;;;;;17.37;12.80;;;;;;;3.12;63.65;99277.06;4989029;28;20238;-70
2022/01/10 07:46:04;;;;;;;21.67;15.20;;;;;;;3.57;63.91;99298.56;4990114;28;20228;-70
2022/01/10 07:48:34;;;;;;;22.80;14.07;;;;;;;4.30;60.83;99261.13;4989949;28;20235;-71
2022/01/10 07:51:03;;;;;;;18.40;12.53;;;;;;;3.12;63.90;99266.53;4988982;28;20231;-70
2022/01/10 07:53:30;;;;;;;19.87;12.70;;;;;;;3.69;63.18;99285.22;4989389;28;20239;-70
2022/01/10 07:55:58;;;;;;;17.23;11.93;;;;;;;4.03;62.39;99284.78;4990184;28;20592;-71
2022/01/10 07:58:25;;;;;;;17.30;12.37;;;;;;;4.48;61.05;99270.91;4989039;28;20251;-71
2022/01/10 08:00:52;;;;;;;16.03;11.10;;;;;;;5.27;58.01;99222.81;4990260;28;20239;-70
2022/01/10 08:03:19;;;;;;;14.90;11.40;;;;;;;5.38;57.56;99210.34;4989419;28;21065;-71
2022/01/10 08:05:46;;;;;;;17.57;11.57;;;;;;;5.42;57.00;99220.47;4981042;28;20578;-70
2022/01/10 08:08:13;;;;;;;17.80;11.13;;;;;;;3.80;62.05;99280.63;4988161;28;20447;-70
2022/01/10 08:10:40;;;;;;;16.00;11.80;;;;;;;1.37;68.56;99283.78;4989765;28;20241;-70
2022/01/10 08:13:07;;;;;;;22.73;15.27;;;;;;;1.77;69.11;99349.91;4989838;28;20727;-71
2022/01/10 08:15:35;;;;;;;21.10;14.63;;;;;;;4.32;61.55;99285.56;4989593;28;21105;-70
2022/01/10 08:18:04;;;;;;;20.60;12.97;;;;;;;4.95;59.70;99272.72;4989562;28;20618;-70
2022/01/10 08:20:31;;;;;;;17.20;12.67;;;;;;;3.82;63.06;99325.34;4987577;28;20236;-70
2022/01/10 08:22:57;;;;;;;16.43;11.40;;;;;;;3.55;63.43;99321.56;4989520;28;20243;-71
2022/01/10 08:25:24;;;;;;;18.27;12.27;;;;;;;3.80;63.30;99329.94;4989565;28;20275;-70
2022/01/10 08:27:51;;;;;;;23.13;16.50;;;;;;;4.43;61.71;99318.06;4988741;28;20229;-70
2022/01/10 08:30:18;;;;;;;21.07;16.73;;;;;;;5.21;59.10;99281.59;4988417;28;20750;-70
2022/01/10 08:32:50;;;;;;;21.63;15.80;;;;;;;5.60;57.73;99264.63;4988399;28;20231;-70
2022/01/10 08:35:19;;;;;;;15.53;11.83;;;;;;;5.79;56.95;99267.09;4989847;28;20259;-70
2022/01/10 08:37:47;;;;;;;18.20;11.63;;;;;;;5.59;57.55;99269.06;4991087;28;20225;-70
2022/01/10 08:40:14;;;;;;;13.10;10.30;;;;;;;5.75;57.07;99275.50;5008808;28;20216;-70
2022/01/10 08:42:41;;;;;;;15.80;10.47;;;;;;;5.86;56.69;99277.91;5008333;28;20229;-70
2022/01/10 08:45:09;;;;;;;14.83;9.70;;;;;;;5.21;57.92;99289.53;5009068;28;20233;-70
2022/01/10 08:47:37;;;;;;;15.97;9.77;;;;;;;4.83;59.46;99312.50;5007502;28;20232;-70
2022/01/10 08:50:07;;;;;;;10.80;7.90;;;;;;;5.20;58.33;99316.13;5008391;28;20701;-70
2022/01/10 08:52:34;;;;;;;14.27;7.60;;;;;;;5.67;57.10;99312.50;5009095;28;20231;-70
2022/01/10 08:55:02;;;;;;;14.63;7.47;;;;;;;5.87;56.62;99306.06;5006988;28;20227;-70
2022/01/10 08:57:29;;;;;;;9.80;7.40;;;;;;;5.66;57.02;99306.34;4991357;28;20232;-70
2022/01/10 08:59:56;;;;;;;10.60;6.83;;;;;;;5.33;56.82;99302.53;5008531;28;20230;-70
2022/01/10 09:02:23;;;;;;;13.40;7.43;;;;;;;5.44;57.72;99328.78;4989066;28;20228;-70
2022/01/10 09:04:50;;;;;;;10.77;6.97;;;;;;;5.41;57.70;99329.94;4988642;28;20874;-71
2022/01/10 09:07:17;;;;;;;12.37;7.87;;;;;;;5.67;57.04;99325.72;4980700;28;20231;-70
2022/01/10 09:09:44;;;;;;;11.87;8.03;;;;;;;5.70;57.14;99326.25;4988508;28;20231;-70
2022/01/10 09:12:12;;;;;;;16.03;9.73;;;;;;;5.91;56.76;99333.88;4988740;28;20629;-70
2022/01/10 09:14:39;;;;;;;21.07;13.37;;;;;;;5.97;56.50;99335.91;4988530;28;20243;-70
2022/01/10 09:17:06;;;;;;;16.27;10.00;;;;;;;5.87;56.32;99332.53;4987487;28;20233;-70
2022/01/10 09:19:33;;;;;;;15.20;9.47;;;;;;;5.94;56.45;99351.28;4987524;28;20743;-70
2022/01/10 09:22:00;;;;;;;16.67;11.03;;;;;;;5.09;57.72;99348.88;4988704;28;20232;-69
2022/01/10 09:24:27;;;;;;;17.30;11.20;;;;;;;5.13;58.47;99368.75;4987188;28;20705;-70
2022/01/10 09:26:56;;;;;;;16.97;10.77;;;;;;;5.50;58.55;99382.94;4988507;28;20489;-70
2022/01/10 09:29:24;;;;;;;14.93;8.60;;;;;;;5.46;58.06;99387.66;4987533;28;20229;-70
2022/01/10 09:31:52;;;;;;;13.53;8.40;;;;;;;5.02;58.60;99379.50;4988746;28;20228;-70
2022/01/10 09:34:19;;;;;;;12.03;6.20;;;;;;;5.59;57.65;99382.03;4987645;28;20232;-71
2022/01/10 09:36:46;;;;;;;10.00;6.40;;;;;;;5.41;58.42;99393.41;4987882;28;20737;-69
2022/01/10 09:39:13;;;;;;;9.70;7.23;;;;;;;5.52;58.50;99394.19;5001698;28;20232;-70
2022/01/10 09:41:40;;;;;;;8.90;6.23;;;;;;;5.43;58.58;99402.03;4990299;28;20246;-69
2022/01/10 09:44:07;;;;;;;10.37;6.13;;;;;;;5.19;59.03;99412.28;5005087;28;20696;-70
2022/01/10 09:46:34;;;;;;;11.40;6.37;;;;;;;4.91;59.25;99402.50;5007892;28;20228;-70
2022/01/10 09:49:04;;;;;;;9.87;6.30;;;;;;;5.05;59.76;99429.47;5007650;28;20233;-70
2022/01/10 09:51:32;;;;;;;8.73;5.87;;;;;;;5.13;59.69;99428.75;4998482;28;20226;-70
2022/01/10 09:54:01;;;;;;;12.70;6.40;;;;;;;5.28;59.53;99425.47;4994025;28;20229;-70
2022/01/10 09:56:29;;;;;;;10.57;6.10;;;;;;;5.22;59.72;99417.28;5005080;28;21627;-70
2022/01/10 09:58:58;;;;;;;6.77;5.43;;;;;;;5.44;59.21;99422.19;5007828;28;20233;-71
2022/01/10 10:01:27;;;;;;;9.43;5.90;;;;;;;5.70;59.08;99410.94;5003306;28;20239;-70
2022/01/10 10:04:03;;;;;;;10.73;5.77;;;;;;;5.75;59.05;99398.09;5006922;28;20228;-70
2022/01/10 10:06:32;;;;;;;6.73;5.20;;;;;;;5.78;58.96;99400.44;5004692;28;20681;-70
2022/01/10 10:09:03;;;;;;;10.50;5.80;;;;;;;5.91;58.86;99405.34;4987696;28;20225;-70
2022/01/10 10:11:44;;;;;;;7.97;6.33;;;;;;;5.90;59.55;99414.28;4987502;28;20233;-70
2022/01/10 10:14:13;;;;;;;13.53;6.90;;;;;;;5.81;58.99;99394.00;4987165;28;20854;-69
2022/01/10 10:16:47;;;;;;;10.83;6.53;;;;;;;5.89;59.61;99404.66;5004948;28;20233;-70
2022/01/10 10:19:17;;;;;;;12.17;5.70;;;;;;;6.21;58.93;99413.91;5006140;28;20234;-71
2022/01/10 10:21:44;;;;;;;11.40;6.80;;;;;;;5.17;61.25;99435.41;5007370;28;20243;-71
2022/01/10 10:24:11;;;;;;;12.30;7.07;;;;;;;5.21;61.72;99439.41;5005986;28;20228;-70
2022/01/10 10:26:39;;;;;;;9.70;7.07;;;;;;;5.81;60.14;99415.16;5007128;28;20233;-70
2022/01/10 10:29:07;;;;;;;13.03;7.60;;;;;;;5.47;61.70;99439.59;5006570;28;20232;-71
2022/01/10 10:31:37;;;;;;;11.60;7.90;;;;;;;5.99;59.60;99417.84;4994332;28;20626;-70
2022/01/10 10:34:05;;;;;;;14.23;7.47;;;;;;;5.78;59.88;99403.09;4986672;28;20230;-70
2022/01/10 10:36:35;;;;;;;16.20;9.13;;;;;;;5.68;60.02;99420.81;4987401;28;20232;-70
2022/01/10 10:39:06;;;;;;;14.40;6.90;;;;;;;5.43;60.70;99441.69;4986833;28;20230;-70
2022/01/10 10:41:37;;;;;;;9.63;6.83;;;;;;;6.35;58.93;99424.00;4986991;28;20225;-70
2022/01/10 10:44:05;;;;;;;12.67;7.17;;;;;;;5.13;61.87;99439.31;4985345;28;20229;-70
2022/01/10 10:46:32;;;;;;;13.13;6.67;;;;;;;5.16;61.66;99457.53;4986998;28;20234;-70
2022/01/10 10:49:05;;;;;;;13.17;6.83;;;;;;;5.79;60.62;99439.13;4987292;28;20825;-70
2022/01/10 10:51:35;;;;;;;10.83;6.10;;;;;;;5.99;59.31;99416.03;4986527;28;20249;-70
2022/01/10 10:54:05;;;;;;;12.97;7.10;;;;;;;5.49;60.94;99429.69;4985752;28;20222;-70
2022/01/10 10:56:35;;;;;;;16.57;7.27;;;;;;;6.22;59.68;99439.41;5003067;28;20231;-70
2022/01/10 10:59:03;;;;;;;13.60;8.20;;;;;;;5.52;61.85;99449.75;4989481;28;20243;-70
2022/01/10 11:03:49;;;;;;;10.43;6.33;;;;;;;2.63;69.95;99509.50;5079149;27;20809;-71
2022/01/10 11:06:16;;;;;;;12.50;7.70;;;;;;;3.72;67.78;99539.03;5062132;28;20733;-69
2022/01/10 11:08:44;;;;;;;16.73;7.40;;;;;;;4.31;65.64;99491.66;5060569;28;20760;-69
2022/01/10 11:11:21;;;;;;;12.70;6.80;;;;;;;3.28;68.12;99506.72;5054300;28;20269;-69
2022/01/10 11:13:55;;;;;;;13.17;7.10;;;;;;;4.38;65.68;99492.78;5042909;28;20635;-69
2022/01/10 11:16:23;;;;;;;11.90;7.83;;;;;;;4.35;63.77;99471.94;5043288;28;20252;-69
2022/01/10 11:18:51;;;;;;;11.40;7.10;;;;;;;5.01;63.23;99473.03;5042980;28;20227;-69
2022/01/10 11:21:18;;;;;;;12.37;6.93;;;;;;;4.81;63.92;99478.31;5042114;28;20216;-69
2022/01/10 11:23:46;;;;;;;16.73;7.27;;;;;;;4.58;64.53;99483.03;5042690;28;20216;-69
2022/01/10 11:26:14;;;;;;;12.70;7.70;;;;;;;4.70;65.36;99495.16;5043152;28;20216;-69
2022/01/10 11:28:53;;;;;;;12.03;6.83;;;;;;;4.60;64.45;99485.56;5043277;28;20243;-69
2022/01/10 11:31:27;;;;;;;11.60;7.27;;;;;;;4.60;63.89;99481.09;5044151;28;20326;-68
2022/01/10 11:33:56;;;;;;;12.43;6.93;;;;;;;4.75;63.93;99494.72;5042986;28;20219;-69
2022/01/10 11:36:26;;;;;;;18.80;7.27;;;;;;;4.35;65.07;99504.47;5048509;28;20227;-67
2022/01/10 11:39:07;;;;;;;15.00;7.63;;;;;;;4.45;65.60;99514.19;5042823;28;20231;-69
2022/01/10 11:41:34;;;;;;;13.33;7.23;;;;;;;5.03;63.30;99482.47;5042639;28;20212;-69
2022/01/10 11:44:12;;;;;;;15.30;8.37;;;;;;;4.77;65.19;99508.66;5042037;28;20231;-69
2022/01/10 11:46:51;;;;;;;13.27;8.10;;;;;;;3.95;66.84;99534.38;5042570;28;20228;-69
2022/01/10 11:49:21;;;;;;;16.33;8.00;;;;;;;4.01;66.30;99505.78;5043270;28;20228;-69